Portada
METAR-TAF:

METAR-TAF

Aeropuertos :

Aeropuerto Internacional de Nội Bài

Hanói, Vietnam

latitud: 21-01N, longitud: 105-48E, altitud: 6 m

Observación

El informe se hizo hace 21 minutos, a las 18:30 UTC
Viento 10 kt del noreste
Temperatura 12°C
Humedad 88%
Presión 1023 hPa
Visibilidad 10 km o más
Cielo nuboso a una altura de 3600 ft

METAR: VVNB 161830Z 04010KT 9999 BKN036 12/10 Q1023 NOSIG

Hora: 01:51 (18:51 UTC)

Pronóstico

El informe se hizo hace 1 hora y 51 minutos, a las 17:00 UTC
Pronóstico válido del 16 a las 18 UTC al 17 a las 18 UTC
Viento 7 kt del norte-noreste
Visibilidad: 6000 m
Cielo nuboso a una altura de 3300 ft

TAF: VVNB 161700Z 1618/1718 03007KT 6000 BKN033

Observaciones y pronósticos meteorológicos de más de 4000 aeropuertos (mensajes METAR y TAF).

Los puntos amarillos y rojos representan las estaciones disponibles.

Ponga el ratón en el punto deseado para ver el nombre de la estación.

Haga clic para ver las observaciones y los pronósticos meteorológicos.

Para cambiar el mapa : haga clic en los botones verdes con una cruz de color negro para hacer un zoom, en el botón verde con un guión para alejar o en las flechas verdes para mapas adyacentes.


METAR-TAF: